Waterville, KS (66548)

7:55 AM CST on February 14, 2016 (GMT -0600)
APRSWXNET | | Change Station
CLOSE
Current Station
Personal Weather Station
Location: Greenleaf, KS
Elevation: 1300 ft
Nearby Weather Stations

Elev 1300 ft 39.67 °N, 96.96 °W | Updated 17 minutes ago

Partly Cloudy
Partly Cloudy
19 °F
Feels Like 10 °F
N
7
Wind Variable Wind from WSW
Gusts 11.0 mph

Today
High -- | Low -- °F
--% Chance of Precip.
Yesterday
High -- | Low -- °F
Precip. -- in
Pressure 30.04 in
Visibility 10.0 miles
Clouds Clear
Windchill 10 °F
Dew Point 12 °F
Humidity 73%
Rainfall in
Snow Depth Not available.
7:21 AM 6:01 PM
Waxing Crescent, 42% visible
METAR KMHK 141352Z 22003KT 10SM CLR M08/M12 A2999 RMK AO2 SLP170 T10781117
Pressure 30.04 in
Visibility 10.0 miles
Clouds Clear
Windchill 10 °F
Dew Point 12 °F
Humidity 73%
Rainfall in
Snow Depth Not available.
7:21 AM 6:01 PM
Waxing Crescent, 42% visible
METAR KMHK 141352Z 22003KT 10SM CLR M08/M12 A2999 RMK AO2 SLP170 T10781117

10-Day Weather Forecast

Almanac

Astronomy

Feb. 14, 2016 Rise Set
Actual Time
Civil Twilight
Nautical Twilight
Astronomical Twilight
Moon
Length of Visible Light
Length of Day
Tomorrow will be .
, % of the Moon is Illuminated

Today's Extremes

State Highs State Lows

Community

WunderPhotos

Upload Photos

1,892,793 photos uploaded!

WunderBlog® & News

Nearby

Air Quality

  Air Quality AQ Index Pollutant
Not available.

Snow Depth

Station Depth Elevation

Earthquake Activity

City Distance Mag. Time & Date
Minimum magnitude displayed is 2.5.

Coastal Water Temperatures

Place Temperature

Stations

Nearby Weather Stations

Station Location Temp. Windchill Dew Point Humidity Wind Precip. Elev Updated Type
                   

Watches & Warnings

There are currently no watches in effect.